createdAt,value
2018-05-17T00:00:50.488Z,981.815
2018-05-17T00:02:49.684Z,981.810
2018-05-17T00:04:50.006Z,981.802
2018-05-17T00:06:50.198Z,981.811
2018-05-17T00:08:50.438Z,981.813
2018-05-17T00:10:50.621Z,981.807
2018-05-17T00:12:49.800Z,981.797
2018-05-17T00:14:49.969Z,981.771
2018-05-17T00:16:50.214Z,981.761
2018-05-17T00:18:50.353Z,981.771
2018-05-17T00:20:50.484Z,981.776
2018-05-17T00:22:49.699Z,981.766
2018-05-17T00:24:49.840Z,981.742
2018-05-17T00:26:50.174Z,981.707
2018-05-17T00:28:50.374Z,981.691
2018-05-17T00:30:50.522Z,981.676
2018-05-17T00:32:49.746Z,981.666
2018-05-17T00:34:50.207Z,981.646
2018-05-17T00:36:50.425Z,981.650
2018-05-17T00:38:50.575Z,981.638
2018-05-17T00:40:49.803Z,981.623
2018-05-17T00:42:50.077Z,981.623
2018-05-17T00:44:50.229Z,981.639
2018-05-17T00:46:50.544Z,981.636
2018-05-17T00:48:49.744Z,981.620
2018-05-17T00:50:49.912Z,981.618
2018-05-17T00:52:50.163Z,981.652
2018-05-17T00:54:50.284Z,981.691
2018-05-17T00:56:50.504Z,981.732
2018-05-17T00:58:49.669Z,981.754
2018-05-17T01:00:49.884Z,981.762
2018-05-17T01:02:50.100Z,981.775
2018-05-17T01:04:50.506Z,981.786
2018-05-17T01:06:49.787Z,981.786
2018-05-17T01:08:49.996Z,981.798
2018-05-17T01:10:50.142Z,981.796
2018-05-17T01:12:50.535Z,981.790
2018-05-17T01:14:49.804Z,981.775
2018-05-17T01:16:50.170Z,981.768
2018-05-17T01:18:50.329Z,981.767
2018-05-17T01:20:50.560Z,981.758
2018-05-17T01:22:49.708Z,981.752
2018-05-17T01:24:49.926Z,981.762
2018-05-17T01:26:50.243Z,981.771
2018-05-17T01:28:50.350Z,981.774
2018-05-17T01:30:50.499Z,981.763
2018-05-17T01:32:49.718Z,981.754
2018-05-17T01:34:50.153Z,981.744
2018-05-17T01:36:50.441Z,981.749
2018-05-17T01:38:49.690Z,981.740
2018-05-17T01:40:49.909Z,981.746
2018-05-17T01:42:50.036Z,981.725
2018-05-17T01:44:50.188Z,981.725
2018-05-17T01:46:50.402Z,981.702
2018-05-17T01:48:50.599Z,981.717
2018-05-17T01:50:49.706Z,981.728
2018-05-17T01:52:49.869Z,981.745
2018-05-17T01:54:50.024Z,981.758
2018-05-17T01:56:50.310Z,981.751
2018-05-17T01:58:50.459Z,981.767
2018-05-17T02:00:49.625Z,981.771
2018-05-17T02:02:49.830Z,981.783
2018-05-17T02:04:50.222Z,981.786
2018-05-17T02:06:50.518Z,981.785
2018-05-17T02:08:50.022Z,981.785
2018-05-17T02:10:50.183Z,981.792
2018-05-17T02:12:50.386Z,981.770
2018-05-17T02:14:50.495Z,981.759
2018-05-17T02:16:49.736Z,981.743
2018-05-17T02:18:49.866Z,981.730
2018-05-17T02:20:50.090Z,981.718
2018-05-17T02:22:50.322Z,981.689
2018-05-17T02:24:50.470Z,981.691
2018-05-17T02:26:49.647Z,981.669
2018-05-17T02:28:49.818Z,981.648
2018-05-17T02:30:49.966Z,981.643
2018-05-17T02:32:50.146Z,981.669
2018-05-17T02:34:50.551Z,981.669
2018-05-17T02:36:49.693Z,981.677
2018-05-17T02:38:49.820Z,981.654
2018-05-17T02:40:49.988Z,981.630
2018-05-17T02:42:50.175Z,981.611
2018-05-17T02:44:50.286Z,981.596
2018-05-17T02:46:50.452Z,981.577
2018-05-17T02:48:49.650Z,981.577
2018-05-17T02:50:49.901Z,981.580
2018-05-17T02:52:50.141Z,981.584
2018-05-17T02:54:50.273Z,981.595
2018-05-17T02:56:50.514Z,981.600
2018-05-17T02:58:49.702Z,981.590
2018-05-17T03:00:49.868Z,981.622
2018-05-17T03:02:50.044Z,981.644
2018-05-17T03:04:50.442Z,981.648
2018-05-17T03:06:49.652Z,981.646
2018-05-17T03:08:49.832Z,981.645
2018-05-17T03:10:50.037Z,981.635
2018-05-17T03:12:50.244Z,981.609
2018-05-17T03:14:50.388Z,981.606
2018-05-17T03:16:49.668Z,981.627
2018-05-17T03:18:49.875Z,981.651
2018-05-17T03:20:49.998Z,981.667
2018-05-17T03:22:50.095Z,981.669
2018-05-17T03:24:50.272Z,981.671
2018-05-17T03:26:50.557Z,981.669
2018-05-17T03:28:49.725Z,981.678
2018-05-17T03:30:49.860Z,981.685
2018-05-17T03:32:50.053Z,981.687
2018-05-17T03:34:50.432Z,981.695
2018-05-17T03:36:49.735Z,981.704
2018-05-17T03:38:49.885Z,981.705
2018-05-17T03:40:50.007Z,981.718
2018-05-17T03:42:50.142Z,981.731
2018-05-17T03:44:50.283Z,981.724
2018-05-17T03:46:50.482Z,981.720
2018-05-17T03:48:49.708Z,981.704
2018-05-17T03:50:49.866Z,981.708
2018-05-17T03:52:49.993Z,981.712
2018-05-17T03:54:50.129Z,981.708
2018-05-17T03:56:50.426Z,981.706
2018-05-17T03:58:49.689Z,981.720
2018-05-17T04:00:49.814Z,981.729
2018-05-17T04:02:49.991Z,981.749
2018-05-17T04:04:50.363Z,981.769
2018-05-17T04:06:50.138Z,981.774
2018-05-17T04:08:50.306Z,981.786
2018-05-17T04:10:50.539Z,981.789
2018-05-17T04:12:49.758Z,981.787
2018-05-17T04:14:49.954Z,981.801
2018-05-17T04:16:50.279Z,981.812
2018-05-17T04:18:50.511Z,981.836
2018-05-17T04:20:49.641Z,981.839
2018-05-17T04:22:49.793Z,981.853
2018-05-17T04:24:49.999Z,981.852
2018-05-17T04:26:50.492Z,981.867
2018-05-17T04:28:49.709Z,981.873
2018-05-17T04:30:49.887Z,981.888
2018-05-17T04:32:50.079Z,981.910
2018-05-17T04:34:50.462Z,981.932
2018-05-17T04:36:49.639Z,981.953
2018-05-17T04:38:49.851Z,981.981
2018-05-17T04:40:50.043Z,981.981
2018-05-17T04:42:50.272Z,981.994
2018-05-17T04:44:50.448Z,981.987
2018-05-17T04:46:49.740Z,981.993
2018-05-17T04:48:49.993Z,981.987
2018-05-17T04:50:50.143Z,981.994
2018-05-17T04:52:50.295Z,981.998
2018-05-17T04:54:50.584Z,982.002
2018-05-17T04:56:50.550Z,981.999
2018-05-17T04:58:49.739Z,981.989
2018-05-17T05:00:49.879Z,981.972
2018-05-17T05:02:50.138Z,981.961
2018-05-17T05:04:49.667Z,981.969
2018-05-17T05:06:49.957Z,981.967
2018-05-17T05:08:50.125Z,981.979
2018-05-17T05:10:50.315Z,981.979
2018-05-17T05:12:50.464Z,981.979
2018-05-17T05:14:49.697Z,981.998
2018-05-17T05:16:49.942Z,982.023
2018-05-17T05:18:50.113Z,982.035
2018-05-17T05:20:50.245Z,982.046
2018-05-17T05:22:50.475Z,982.080
2018-05-17T05:24:49.618Z,982.093
2018-05-17T05:26:49.853Z,982.096
2018-05-17T05:28:50.100Z,982.083
2018-05-17T05:30:50.245Z,982.081
2018-05-17T05:32:50.423Z,982.066
2018-05-17T05:34:49.874Z,982.062
2018-05-17T05:36:50.499Z,982.074
2018-05-17T05:38:49.657Z,982.096
2018-05-17T05:40:49.856Z,982.113
2018-05-17T05:42:50.049Z,982.134
2018-05-17T05:44:50.179Z,982.169
2018-05-17T05:46:50.498Z,982.174
2018-05-17T05:48:49.642Z,982.185
2018-05-17T05:50:49.780Z,982.193
2018-05-17T05:52:50.005Z,982.200
2018-05-17T05:54:50.195Z,982.184
2018-05-17T05:56:50.697Z,982.177
2018-05-17T05:58:49.622Z,982.146
2018-05-17T06:00:49.781Z,982.140
2018-05-17T06:02:50.387Z,982.164
2018-05-17T06:04:50.023Z,982.188
2018-05-17T06:06:50.422Z,982.204
2018-05-17T06:08:50.576Z,982.232
2018-05-17T06:10:49.738Z,982.242
2018-05-17T06:12:50.004Z,982.257
2018-05-17T06:14:50.172Z,982.247
2018-05-17T06:16:50.532Z,982.247
2018-05-17T06:18:49.776Z,982.292
2018-05-17T06:20:49.926Z,982.324
2018-05-17T06:22:50.109Z,982.358
2018-05-17T06:24:50.341Z,982.370
2018-05-17T06:26:50.530Z,982.366
2018-05-17T06:28:49.712Z,982.353
2018-05-17T06:30:49.847Z,982.368
2018-05-17T06:32:50.034Z,982.384
2018-05-17T06:34:50.407Z,982.384
2018-05-17T06:36:49.625Z,982.445
2018-05-17T06:38:49.757Z,982.438
2018-05-17T06:40:50.019Z,982.444
2018-05-17T06:42:50.202Z,982.444
2018-05-17T06:44:50.433Z,982.477
2018-05-17T06:46:50.594Z,982.508
2018-05-17T06:48:49.793Z,982.517
2018-05-17T06:50:49.953Z,982.535
2018-05-17T06:52:50.162Z,982.552
2018-05-17T06:54:50.344Z,982.565
2018-05-17T06:56:50.574Z,982.563
2018-05-17T06:58:49.791Z,982.557
2018-05-17T07:00:50.076Z,982.547
2018-05-17T07:02:50.383Z,982.566
2018-05-17T07:04:49.983Z,982.579
2018-05-17T07:06:50.205Z,982.622
2018-05-17T07:08:50.347Z,982.652
2018-05-17T07:10:49.785Z,982.684
2018-05-17T07:12:49.989Z,982.684
2018-05-17T07:14:50.167Z,982.681
2018-05-17T07:16:50.330Z,982.683
2018-05-17T07:18:50.473Z,982.698
2018-05-17T07:20:49.660Z,982.721
2018-05-17T07:22:49.824Z,982.738
2018-05-17T07:24:49.980Z,982.749
2018-05-17T07:26:50.219Z,982.786
2018-05-17T07:28:50.553Z,982.821
2018-05-17T07:30:49.704Z,982.830
2018-05-17T07:32:49.915Z,982.847
2018-05-17T07:34:50.377Z,982.869
2018-05-17T07:36:50.560Z,982.863
2018-05-17T07:38:49.685Z,982.873
2018-05-17T07:40:49.807Z,982.890
2018-05-17T07:42:50.009Z,982.901
2018-05-17T07:44:50.251Z,982.909
2018-05-17T07:46:50.739Z,982.947
2018-05-17T07:48:50.032Z,982.963
2018-05-17T07:50:50.222Z,982.977
2018-05-17T07:52:50.409Z,982.977
2018-05-17T07:54:49.645Z,983.015
2018-05-17T07:56:49.960Z,983.028
2018-05-17T07:58:50.121Z,983.047
2018-05-17T08:00:50.253Z,983.074
2018-05-17T08:02:50.422Z,983.098
2018-05-17T08:04:49.960Z,983.114
2018-05-17T08:06:50.122Z,983.132
2018-05-17T08:08:50.254Z,983.136
2018-05-17T08:10:50.411Z,983.144
2018-05-17T08:12:49.648Z,983.144
2018-05-17T08:14:49.833Z,983.173
2018-05-17T08:16:50.015Z,983.173
2018-05-17T08:18:50.270Z,983.189
2018-05-17T08:20:50.561Z,983.165
2018-05-17T08:22:50.268Z,983.182
2018-05-17T08:24:50.432Z,983.218
2018-05-17T08:26:49.656Z,983.240
2018-05-17T08:28:49.933Z,983.257
2018-05-17T08:30:50.422Z,983.261
2018-05-17T08:32:50.599Z,983.276
2018-05-17T08:34:50.042Z,983.292
2018-05-17T08:36:50.444Z,983.287
2018-05-17T08:38:50.785Z,983.299
2018-05-17T08:40:49.901Z,983.319
2018-05-17T08:42:50.159Z,983.323
2018-05-17T08:44:50.294Z,983.324
2018-05-17T08:46:50.543Z,983.348
2018-05-17T08:48:49.774Z,983.369
2018-05-17T08:50:49.942Z,983.378
2018-05-17T08:52:50.103Z,983.383
2018-05-17T08:54:50.334Z,983.390
2018-05-17T08:56:50.530Z,983.428
2018-05-17T08:58:49.712Z,983.428
2018-05-17T09:00:49.846Z,983.400
2018-05-17T09:02:50.110Z,983.398
2018-05-17T09:04:49.657Z,983.382
2018-05-17T09:06:49.897Z,983.395
2018-05-17T09:08:50.110Z,983.379
2018-05-17T09:10:50.281Z,983.364
2018-05-17T09:12:50.389Z,983.367
2018-05-17T09:14:50.541Z,983.364
2018-05-17T09:16:49.811Z,983.377
2018-05-17T09:18:49.998Z,983.401
2018-05-17T09:20:50.172Z,983.390
2018-05-17T09:22:50.327Z,983.394
2018-05-17T09:24:50.453Z,983.422
2018-05-17T09:26:49.694Z,983.428
2018-05-17T09:28:49.885Z,983.465
2018-05-17T09:30:50.051Z,983.473
2018-05-17T09:32:50.200Z,983.511
2018-05-17T09:34:50.560Z,983.509
2018-05-17T09:36:49.735Z,983.521
2018-05-17T09:38:49.896Z,983.511
2018-05-17T09:40:50.080Z,983.503
2018-05-17T09:42:50.325Z,983.523
2018-05-17T09:44:50.476Z,983.523
2018-05-17T09:46:49.722Z,983.565
2018-05-17T09:48:49.864Z,983.581
2018-05-17T09:50:50.017Z,983.614
2018-05-17T09:52:50.235Z,983.607
2018-05-17T09:54:50.352Z,983.634
2018-05-17T09:56:49.844Z,983.664
2018-05-17T09:58:50.009Z,983.657
2018-05-17T10:00:50.193Z,983.675
2018-05-17T10:02:50.430Z,983.697
2018-05-17T10:04:49.808Z,983.698
2018-05-17T10:06:49.972Z,983.703
2018-05-17T10:08:50.324Z,983.703
2018-05-17T10:10:49.736Z,983.719
2018-05-17T10:12:49.872Z,983.726
2018-05-17T10:14:50.154Z,983.726
2018-05-17T10:16:50.379Z,983.738
2018-05-17T10:18:49.646Z,983.736
2018-05-17T10:20:49.986Z,983.732
2018-05-17T10:22:50.144Z,983.719
2018-05-17T10:24:50.338Z,983.689
2018-05-17T10:26:50.550Z,983.688
2018-05-17T10:28:49.735Z,983.689
2018-05-17T10:30:49.888Z,983.694
2018-05-17T10:32:50.132Z,983.702
2018-05-17T10:34:50.558Z,983.705
2018-05-17T10:36:49.930Z,983.696
2018-05-17T10:38:50.156Z,983.671
2018-05-17T10:40:50.365Z,983.672
2018-05-17T10:42:50.489Z,983.662
2018-05-17T10:44:49.646Z,983.645
2018-05-17T10:46:49.914Z,983.651
2018-05-17T10:48:50.121Z,983.663
2018-05-17T10:50:50.521Z,983.672
2018-05-17T10:52:49.672Z,983.682
2018-05-17T10:54:49.878Z,983.671
2018-05-17T10:56:50.168Z,983.663
2018-05-17T10:58:50.342Z,983.616
2018-05-17T11:00:50.502Z,983.599
2018-05-17T11:02:49.630Z,983.610
2018-05-17T11:04:50.086Z,983.653
2018-05-17T11:06:50.330Z,983.653
2018-05-17T11:08:50.490Z,983.662
2018-05-17T11:10:50.613Z,983.649
2018-05-17T11:12:49.714Z,983.641
2018-05-17T11:14:49.854Z,983.621
2018-05-17T11:16:50.096Z,983.636
2018-05-17T11:18:50.290Z,983.657
2018-05-17T11:20:50.434Z,983.668
2018-05-17T11:22:50.598Z,983.659
2018-05-17T11:24:49.724Z,983.659
2018-05-17T11:26:49.964Z,983.661
2018-05-17T11:28:50.103Z,983.626
2018-05-17T11:30:50.274Z,983.626
2018-05-17T11:32:50.414Z,983.604
2018-05-17T11:34:49.880Z,983.606
2018-05-17T11:36:50.283Z,983.599
2018-05-17T11:38:50.470Z,983.563
2018-05-17T11:40:49.722Z,983.534
2018-05-17T11:42:49.926Z,983.518
2018-05-17T11:44:50.053Z,983.519
2018-05-17T11:46:50.235Z,983.494
2018-05-17T11:48:50.436Z,983.463
2018-05-17T11:50:50.573Z,983.472
2018-05-17T11:52:49.809Z,983.492
2018-05-17T11:54:49.942Z,983.512
2018-05-17T11:56:50.180Z,983.501
2018-05-17T11:58:50.319Z,983.481
2018-05-17T12:00:50.441Z,983.478
2018-05-17T12:02:49.662Z,983.445
2018-05-17T12:04:49.995Z,983.445
2018-05-17T12:06:50.236Z,983.415
2018-05-17T12:08:50.350Z,983.402
2018-05-17T12:10:50.572Z,983.410
2018-05-17T12:12:49.803Z,983.410
2018-05-17T12:14:49.992Z,983.412
2018-05-17T12:16:50.328Z,983.437
2018-05-17T12:18:50.490Z,983.436
2018-05-17T12:20:49.661Z,983.442
2018-05-17T12:22:49.768Z,983.456
2018-05-17T12:24:49.904Z,983.471
2018-05-17T12:26:50.203Z,983.498
2018-05-17T12:28:50.405Z,983.495
2018-05-17T12:30:50.563Z,983.516
2018-05-17T12:32:49.774Z,983.527
2018-05-17T12:34:50.184Z,983.546
2018-05-17T12:36:50.395Z,983.543
2018-05-17T12:38:50.576Z,983.568
2018-05-17T12:40:49.708Z,983.576
2018-05-17T12:42:50.106Z,983.565
2018-05-17T12:44:50.544Z,983.541
2018-05-17T12:46:49.771Z,983.544
2018-05-17T12:48:49.910Z,983.515
2018-05-17T12:50:50.348Z,983.515
2018-05-17T12:52:49.848Z,983.516
2018-05-17T12:54:50.013Z,983.502
2018-05-17T12:56:50.516Z,983.499
2018-05-17T12:58:50.298Z,983.497
2018-05-17T13:00:49.841Z,983.503
2018-05-17T13:02:49.960Z,983.499
2018-05-17T13:04:50.295Z,983.501
2018-05-17T13:06:49.621Z,983.447
2018-05-17T13:08:49.822Z,983.412
2018-05-17T13:10:49.991Z,983.392
2018-05-17T13:12:50.231Z,983.387
2018-05-17T13:14:50.429Z,983.385
2018-05-17T13:16:49.720Z,983.373
2018-05-17T13:18:49.896Z,983.414
2018-05-17T13:20:49.989Z,983.413
2018-05-17T13:22:50.129Z,983.380
2018-05-17T13:24:50.452Z,983.361
2018-05-17T13:26:50.160Z,983.347
2018-05-17T13:28:50.307Z,983.366
2018-05-17T13:30:50.393Z,983.357
2018-05-17T13:32:50.523Z,983.323
2018-05-17T13:34:49.852Z,983.308
2018-05-17T13:36:50.164Z,983.277
2018-05-17T13:38:50.297Z,983.280
2018-05-17T13:40:50.467Z,983.289
2018-05-17T13:42:50.630Z,983.296
2018-05-17T13:44:49.914Z,983.296
2018-05-17T13:46:50.204Z,983.251
2018-05-17T13:48:50.354Z,983.232
2018-05-17T13:50:50.505Z,983.226
2018-05-17T13:52:49.665Z,983.221
2018-05-17T13:54:49.808Z,983.211
2018-05-17T13:56:50.017Z,983.207
2018-05-17T13:58:50.204Z,983.228
2018-05-17T14:00:50.388Z,983.233
2018-05-17T14:02:49.746Z,983.248
2018-05-17T14:04:50.332Z,983.273
2018-05-17T14:06:50.524Z,983.239
2018-05-17T14:08:49.735Z,983.215
2018-05-17T14:10:49.873Z,983.201
2018-05-17T14:12:50.047Z,983.171
2018-05-17T14:14:50.221Z,983.176
2018-05-17T14:16:50.459Z,983.184
2018-05-17T14:18:50.653Z,983.157
2018-05-17T14:20:49.988Z,983.153
2018-05-17T14:22:50.233Z,983.139
2018-05-17T14:24:50.380Z,983.126
2018-05-17T14:26:49.662Z,983.125
2018-05-17T14:28:49.887Z,983.146
2018-05-17T14:30:50.073Z,983.130
2018-05-17T14:32:50.263Z,983.140
2018-05-17T14:34:49.642Z,983.151
2018-05-17T14:36:49.885Z,983.149
2018-05-17T14:38:50.379Z,983.144
2018-05-17T14:40:50.064Z,983.144
2018-05-17T14:42:50.250Z,983.154
2018-05-17T14:44:50.388Z,983.156
2018-05-17T14:46:50.562Z,983.145
2018-05-17T14:48:49.669Z,983.149
2018-05-17T14:50:49.801Z,983.186
2018-05-17T14:52:50.037Z,983.202
2018-05-17T14:54:50.222Z,983.179
2018-05-17T14:56:50.435Z,983.163
2018-05-17T14:58:49.627Z,983.182
2018-05-17T15:00:49.902Z,983.178
2018-05-17T15:02:50.016Z,983.201
2018-05-17T15:04:50.532Z,983.207
2018-05-17T15:06:49.772Z,983.190
2018-05-17T15:08:50.095Z,983.192
2018-05-17T15:10:50.503Z,983.167
2018-05-17T15:12:49.701Z,983.162
2018-05-17T15:14:49.923Z,983.165
2018-05-17T15:16:50.202Z,983.199
2018-05-17T15:18:50.349Z,983.199
2018-05-17T15:20:50.517Z,983.244
2018-05-17T15:22:49.635Z,983.241
2018-05-17T15:24:49.779Z,983.231
2018-05-17T15:26:50.075Z,983.240
2018-05-17T15:28:50.185Z,983.261
2018-05-17T15:30:50.309Z,983.247
2018-05-17T15:32:50.512Z,983.237
2018-05-17T15:34:49.875Z,983.254
2018-05-17T15:36:50.032Z,983.237
2018-05-17T15:38:50.264Z,983.231
2018-05-17T15:40:50.368Z,983.218
2018-05-17T15:42:50.606Z,983.192
2018-05-17T15:44:49.799Z,983.146
2018-05-17T15:46:49.988Z,983.146
2018-05-17T15:48:50.138Z,983.157
2018-05-17T15:50:50.320Z,983.135
2018-05-17T15:52:50.478Z,983.142
2018-05-17T15:54:49.626Z,983.177
2018-05-17T15:56:49.861Z,983.192
2018-05-17T15:58:49.977Z,983.205
2018-05-17T16:00:50.122Z,983.217
2018-05-17T16:02:50.352Z,983.244
2018-05-17T16:04:49.699Z,983.245
2018-05-17T16:06:49.928Z,983.288
2018-05-17T16:08:50.142Z,983.296
2018-05-17T16:10:50.358Z,983.323
2018-05-17T16:12:50.559Z,983.327
2018-05-17T16:14:50.237Z,983.347
2018-05-17T16:16:50.380Z,983.377
2018-05-17T16:18:50.507Z,983.377
2018-05-17T16:20:49.670Z,983.388
2018-05-17T16:22:49.925Z,983.392
2018-05-17T16:24:50.091Z,983.417
2018-05-17T16:26:50.355Z,983.417
2018-05-17T16:28:50.486Z,983.432
2018-05-17T16:30:49.653Z,983.450
2018-05-17T16:32:50.181Z,983.453
2018-05-17T16:34:49.641Z,983.473
2018-05-17T16:36:49.962Z,983.495
2018-05-17T16:38:50.245Z,983.538
2018-05-17T16:40:50.367Z,983.590
2018-05-17T16:42:50.636Z,983.610
2018-05-17T16:44:50.519Z,983.679
2018-05-17T16:46:49.716Z,983.683
2018-05-17T16:48:49.911Z,983.707
2018-05-17T16:50:50.106Z,983.739
2018-05-17T16:52:50.566Z,983.784
2018-05-17T16:54:49.771Z,983.797
2018-05-17T16:56:49.994Z,983.821
2018-05-17T16:58:50.356Z,983.856
2018-05-17T17:00:50.022Z,983.880
2018-05-17T17:02:50.294Z,983.896
2018-05-17T17:04:50.267Z,983.919
2018-05-17T17:06:49.873Z,983.948
2018-05-17T17:08:50.344Z,983.975
2018-05-17T17:10:50.470Z,984.005
2018-05-17T17:12:49.623Z,984.018
2018-05-17T17:14:49.820Z,984.034
2018-05-17T17:16:50.072Z,984.049
2018-05-17T17:18:50.197Z,984.044
2018-05-17T17:20:50.361Z,984.034
2018-05-17T17:22:50.532Z,984.037
2018-05-17T17:24:49.681Z,984.019
2018-05-17T17:26:50.030Z,984.021
2018-05-17T17:28:50.242Z,984.021
2018-05-17T17:30:50.533Z,984.034
2018-05-17T17:32:49.833Z,984.026
2018-05-17T17:34:50.225Z,984.035
2018-05-17T17:36:50.452Z,984.053
2018-05-17T17:38:50.610Z,984.092
2018-05-17T17:40:49.754Z,984.117
2018-05-17T17:42:49.922Z,984.163
2018-05-17T17:44:50.097Z,984.176
2018-05-17T17:46:50.286Z,984.229
2018-05-17T17:48:50.466Z,984.256
2018-05-17T17:50:49.621Z,984.263
2018-05-17T17:52:49.746Z,984.281
2018-05-17T17:54:49.885Z,984.285
2018-05-17T17:56:50.068Z,984.298
2018-05-17T17:58:50.243Z,984.298
2018-05-17T18:00:50.400Z,984.294
2018-05-17T18:02:50.598Z,984.301
2018-05-17T18:04:49.950Z,984.304
2018-05-17T18:06:50.193Z,984.310
2018-05-17T18:08:50.360Z,984.339
2018-05-17T18:10:50.493Z,984.356
2018-05-17T18:12:50.592Z,984.387
2018-05-17T18:14:49.739Z,984.398
2018-05-17T18:16:50.018Z,984.419
2018-05-17T18:18:50.199Z,984.442
2018-05-17T18:20:50.335Z,984.442
2018-05-17T18:22:50.526Z,984.465
2018-05-17T18:24:49.745Z,984.471
2018-05-17T18:26:50.171Z,984.475
2018-05-17T18:28:50.351Z,984.492
2018-05-17T18:30:50.483Z,984.492
2018-05-17T18:32:49.713Z,984.500
2018-05-17T18:34:50.143Z,984.520
2018-05-17T18:36:50.764Z,984.535
2018-05-17T18:38:50.341Z,984.570
2018-05-17T18:40:50.531Z,984.584
2018-05-17T18:42:49.759Z,984.582
2018-05-17T18:44:50.008Z,984.581
2018-05-17T18:46:50.395Z,984.597
2018-05-17T18:48:50.601Z,984.603
2018-05-17T18:50:49.941Z,984.624
2018-05-17T18:52:50.101Z,984.628
2018-05-17T18:54:50.288Z,984.662
2018-05-17T18:56:50.644Z,984.689
2018-05-17T18:58:50.003Z,984.699
2018-05-17T19:00:50.224Z,984.720
2018-05-17T19:02:50.406Z,984.744
2018-05-17T19:04:50.007Z,984.808
2018-05-17T19:06:50.286Z,984.845
2018-05-17T19:08:50.606Z,984.864
2018-05-17T19:10:50.282Z,984.914
2018-05-17T19:12:50.499Z,984.920
2018-05-17T19:14:49.638Z,984.956
2018-05-17T19:16:49.939Z,984.961
2018-05-17T19:18:50.057Z,984.994
2018-05-17T19:20:50.201Z,985.007
2018-05-17T19:22:50.367Z,985.060
2018-05-17T19:24:50.472Z,985.090
2018-05-17T19:26:49.651Z,985.120
2018-05-17T19:28:50.041Z,985.183
2018-05-17T19:30:50.429Z,985.221
2018-05-17T19:32:50.600Z,985.241
2018-05-17T19:34:49.952Z,985.267
2018-05-17T19:36:50.227Z,985.309
2018-05-17T19:38:50.373Z,985.371
2018-05-17T19:40:50.547Z,985.397
2018-05-17T19:42:49.681Z,985.420
2018-05-17T19:44:49.891Z,985.422
2018-05-17T19:46:50.097Z,985.448
2018-05-17T19:48:50.234Z,985.449
2018-05-17T19:50:50.412Z,985.467
2018-05-17T19:52:50.781Z,985.503
2018-05-17T19:54:50.286Z,985.522
2018-05-17T19:56:50.491Z,985.536
2018-05-17T19:58:49.630Z,985.552
2018-05-17T20:00:49.828Z,985.580
2018-05-17T20:02:50.026Z,985.597
2018-05-17T20:04:50.473Z,985.610
2018-05-17T20:06:49.849Z,985.647
2018-05-17T20:08:49.966Z,985.660
2018-05-17T20:10:50.195Z,985.665
2018-05-17T20:12:50.369Z,985.686
2018-05-17T20:14:50.523Z,985.686
2018-05-17T20:16:49.784Z,985.662
2018-05-17T20:18:49.940Z,985.655
2018-05-17T20:20:50.133Z,985.659
2018-05-17T20:22:50.258Z,985.666
2018-05-17T20:24:50.397Z,985.690
2018-05-17T20:26:49.653Z,985.694
2018-05-17T20:28:49.837Z,985.677
2018-05-17T20:30:50.025Z,985.676
2018-05-17T20:32:50.292Z,985.715
2018-05-17T20:34:50.625Z,985.752
2018-05-17T20:36:49.992Z,985.771
2018-05-17T20:38:50.189Z,985.781
2018-05-17T20:40:50.327Z,985.791
2018-05-17T20:42:50.499Z,985.803
2018-05-17T20:44:49.662Z,985.804
2018-05-17T20:46:49.849Z,985.823
2018-05-17T20:48:50.082Z,985.844
2018-05-17T20:50:50.300Z,985.845
2018-05-17T20:52:50.460Z,985.842
2018-05-17T20:54:49.662Z,985.842
2018-05-17T20:56:49.883Z,985.837
2018-05-17T20:58:50.043Z,985.859
2018-05-17T21:00:50.251Z,985.887
2018-05-17T21:02:50.432Z,985.900
2018-05-17T21:04:49.943Z,985.917
2018-05-17T21:06:50.204Z,985.917
2018-05-17T21:08:50.333Z,985.923
2018-05-17T21:10:50.496Z,985.948
2018-05-17T21:12:49.858Z,985.962
2018-05-17T21:14:50.424Z,985.963
2018-05-17T21:16:49.675Z,985.954
2018-05-17T21:18:49.808Z,985.953
2018-05-17T21:20:50.055Z,985.948
2018-05-17T21:22:50.188Z,985.971
2018-05-17T21:24:50.360Z,985.976
2018-05-17T21:26:50.551Z,985.981
2018-05-17T21:28:49.714Z,986.001
2018-05-17T21:30:49.904Z,986.016
2018-05-17T21:32:50.078Z,986.033
2018-05-17T21:34:50.333Z,986.044
2018-05-17T21:36:50.581Z,986.066
2018-05-17T21:38:49.827Z,986.081
2018-05-17T21:40:49.972Z,986.096
2018-05-17T21:42:50.113Z,986.097
2018-05-17T21:44:49.849Z,986.098
2018-05-17T21:46:50.452Z,986.094
2018-05-17T21:48:49.648Z,986.094
2018-05-17T21:50:49.792Z,986.098
2018-05-17T21:52:50.013Z,986.110
2018-05-17T21:54:50.214Z,986.116
2018-05-17T21:56:50.433Z,986.127
2018-05-17T21:58:50.602Z,986.126
2018-05-17T22:00:49.810Z,986.132
2018-05-17T22:02:50.001Z,986.133
2018-05-17T22:04:50.387Z,986.127
2018-05-17T22:06:49.619Z,986.142
2018-05-17T22:08:49.881Z,986.170
2018-05-17T22:10:50.073Z,986.191
2018-05-17T22:12:50.305Z,986.214
2018-05-17T22:14:50.428Z,986.221
2018-05-17T22:16:49.740Z,986.254
2018-05-17T22:18:49.898Z,986.273
2018-05-17T22:20:50.068Z,986.281
2018-05-17T22:22:50.213Z,986.296
2018-05-17T22:24:50.426Z,986.290
2018-05-17T22:26:49.619Z,986.303
2018-05-17T22:28:49.751Z,986.308
2018-05-17T22:30:49.941Z,986.318
2018-05-17T22:32:50.095Z,986.321
2018-05-17T22:34:50.592Z,986.322
2018-05-17T22:36:49.831Z,986.310
2018-05-17T22:38:49.983Z,986.292
2018-05-17T22:40:50.177Z,986.292
2018-05-17T22:42:50.382Z,986.305
2018-05-17T22:44:50.516Z,986.303
2018-05-17T22:46:49.781Z,986.320
2018-05-17T22:48:49.940Z,986.323
2018-05-17T22:50:50.086Z,986.308
2018-05-17T22:52:50.319Z,986.271
2018-05-17T22:54:50.536Z,986.246
2018-05-17T22:56:49.835Z,986.243
2018-05-17T22:58:49.994Z,986.262
2018-05-17T23:00:50.223Z,986.247
2018-05-17T23:02:50.446Z,986.230
2018-05-17T23:04:49.801Z,986.217
2018-05-17T23:06:50.078Z,986.208
2018-05-17T23:08:50.286Z,986.220
2018-05-17T23:10:50.428Z,986.212
2018-05-17T23:12:50.574Z,986.201
2018-05-17T23:14:49.689Z,986.203
2018-05-17T23:16:49.874Z,986.192
2018-05-17T23:18:50.045Z,986.198
2018-05-17T23:20:50.289Z,986.185
2018-05-17T23:22:50.411Z,986.174
2018-05-17T23:24:50.522Z,986.153
2018-05-17T23:26:49.775Z,986.153
2018-05-17T23:28:49.930Z,986.156
2018-05-17T23:30:50.157Z,986.151
2018-05-17T23:32:50.297Z,986.153
2018-05-17T23:34:49.881Z,986.165
2018-05-17T23:36:50.224Z,986.158
2018-05-17T23:38:50.361Z,986.156
2018-05-17T23:40:50.440Z,986.156
2018-05-17T23:42:50.521Z,986.134
2018-05-17T23:44:49.701Z,986.135
2018-05-17T23:46:49.942Z,986.135
2018-05-17T23:48:50.169Z,986.135
2018-05-17T23:50:50.291Z,986.108
2018-05-17T23:52:50.505Z,986.110
2018-05-17T23:54:49.637Z,986.095
2018-05-17T23:56:49.907Z,986.071
2018-05-17T23:58:50.099Z,986.078
